Flight Track Log - Related Links

Times and Time Zones

All times are in EDT time to prevent confusion due to time zone crossing. See the EJA922 flight status page for this flight to view local times or setup timezone preferences in your user account.

Time Position Orientation Groundspeed Altitude Reporting Facility
EDT Latitude Longitude Course Direction KTS MPH feet Rate Location/Type
Thu 03:22:48 PM 33.6167 -117.9000 85° East 219 252 3,200  Level Southern California TRACON
Thu 03:24:04 PM 33.5428 -117.8747 164° South 272 313 5,900 2,565 Climbing Los Angeles Center
Thu 03:25:06 PM 33.5414 -117.7814 91° East 302 348 9,100 3,484 Climbing Los Angeles Center
Thu 03:26:08 PM 33.5581 -117.6617 80° East 304 350 13,100 3,290 Climbing Los Angeles Center
Thu 03:27:10 PM 33.5619 -117.5539 87° East 319 367 15,900 2,081 Climbing Los Angeles Center
Thu 03:28:00 PM 33.6851 -117.0844 85° East  Level Estimated
Thu 03:28:12 PM 33.5681 -117.4311 87° East 362 417 17,400  Level Los Angeles Center
Thu 03:29:15 PM 33.5756 -117.2978 86° East 398 458 18,900 1,488 Climbing Los Angeles Center
Thu 03:30:17 PM 33.5825 -117.1436 87° East 420 483 20,500 1,597 Climbing Los Angeles Center
Thu 03:31:19 PM 33.5903 -116.9844 87° East 432 497 22,200 1,548 Climbing Los Angeles Center
Thu 03:32:21 PM 33.5975 -116.8386 87° East 440 506 23,700 1,355 Climbing Los Angeles Center
Thu 03:33:23 PM 33.6039 -116.7011 87° East 451 519 25,000 1,210 Climbing Los Angeles Center
Thu 03:34:25 PM 33.6131 -116.5144 87° East 465 535 26,200 1,065 Climbing Los Angeles Center
Thu 03:35:27 PM 33.6194 -116.3517 87° East 482 555 27,200 960 Climbing Los Angeles Center
Thu 03:36:30 PM 33.6267 -116.1856 87° East 493 567 28,200 960 Climbing Los Angeles Center
Thu 03:37:32 PM 33.6239 -116.0169 91° East 502 578 29,200 968 Climbing Los Angeles Center
Thu 03:38:34 PM 33.6219 -115.8467 91° East 507 583 30,200 871 Climbing Los Angeles Center
Thu 03:39:36 PM 33.6186 -115.6742 91° East 514 592 31,000 387 Climbing Los Angeles Center
Thu 03:40:38 PM 33.6122 -115.4953 92° East 533 613 31,000  Level Los Angeles Center
Thu 03:41:40 PM 33.6064 -115.2781 92° East 543 625 31,000  Level Los Angeles Center
Thu 03:42:55 PM 33.5819 -115.0636 98° East 539 620 31,000  Level Los Angeles Center
Thu 03:43:57 PM 33.5608 -114.8831 98° East 544 626 31,000  Level Los Angeles Center
Thu 03:44:59 PM 33.5392 -114.7031 98° East 546 628 31,000  Level Los Angeles Center
Thu 03:46:01 PM 33.5172 -114.5250 98° East 543 625 31,000 -1,104 Level Los Angeles Center
Thu 03:47:04 PM 33.4894 -114.3103 99° East 544 626 28,700 -2,257 Descending Los Angeles Center
Thu 03:47:42 PM 33.4808 -114.2147 96° East 544 626 27,200 -2,265 Descending Albuquerque Center
Thu 03:48:42 PM 33.4575 -114.0450 99° East 524 603 25,000 -1,065 Descending Albuquerque Center
Thu 03:49:46 PM 33.4242 -113.8856 104° East 501 577 25,000 -576 Level Albuquerque Center
Thu 03:50:47 PM 33.3931 -113.7253 103° East 496 571 23,800 -1,574 Descending Albuquerque Center
Thu 03:51:48 PM 33.4169 -113.5656 80° East 494 568 21,800 -2,177 Descending Albuquerque Center
Thu 03:52:51 PM 33.4744 -113.3828 69° East 488 562 19,300 -2,537 Descending Albuquerque Center
Thu 03:53:51 PM 33.5172 -113.2364 71° East 475 547 16,600 -2,563 Descending Albuquerque Center
Thu 03:54:34 PM 33.5442 -113.1500 69° East 449 517 14,900 -2,438 Descending Albuquerque Center
Thu 03:54:55 PM 33.5592 -113.0967 71° East 454 522 14,000 -2,500 Descending Albuquerque Center
Thu 03:55:22 PM 33.5764 -113.0403 70° East 409 471 12,900 -2,361 Descending Albuquerque Center
Thu 03:55:56 PM 33.5972 -112.9719 70° East 412 474 11,600 -1,869 Descending Albuquerque Center
Thu 03:56:23 PM 33.6111 -112.9197 72° East 381 438 11,000 -700 Descending Albuquerque Center
Thu 03:56:56 PM 33.6153 -112.8461 86° East 389 448 10,900 -455 Descending Albuquerque Center
Thu 03:57:29 PM 33.6375 -112.7781 69° East 339 390 10,500 -938 Descending Albuquerque Center
Thu 03:58:00 PM 33.6583 -112.7258 64° Northeast 334 384 9,900 -1,279 Descending Albuquerque Center
Thu 03:58:30 PM 33.6733 -112.6903 63° Northeast 288 331 9,200 -1,600 Descending Albuquerque Center
Thu 03:59:00 PM 33.6911 -112.6450 65° Northeast 299 344 8,300 -1,915 Descending Albuquerque Center
Thu 04:00:04 PM 33.7272 -112.5611 63° Northeast 285 328 6,200 -1,113 Descending Albuquerque Center
Thu 04:01:04 PM 33.7622 -112.4792 63° Northeast 279 321 6,000 -97 Descending Albuquerque Center
Thu 04:02:08 PM 33.7867 -112.3969 70° East 268 308 6,000 -48 Level Albuquerque Center
Thu 04:03:09 PM 33.7825 -112.2869 93° East 277 319 5,900  Descending Albuquerque Center
Thu 04:04:10 PM 33.7786 -112.1942 93° East 278 320 6,000 49 Climbing Albuquerque Center
Thu 04:05:11 PM 33.7744 -112.1014 93° East 279 321 6,000  Level Albuquerque Center
Thu 04:06:15 PM 33.7697 -112.0086 93° East 281 323 6,000 -194 Level Albuquerque Center
Thu 04:07:15 PM 33.7583 -111.9206 99° East 274 315 5,600 -787 Descending Albuquerque Center
Thu 04:08:17 PM 33.7144 -111.8714 137° Southeast 219 252 4,400 -1,381 Descending Albuquerque Center
Thu 04:09:21 PM 33.6631 -111.8678 177° South 171 197 2,700 -1,344 Descending Albuquerque Center
Thu 04:10:22 PM 33.6331 -111.9000 222° Southwest 155 178 1,600 -645 Descending Albuquerque Center
Thu 04:11:22 PM 33.6042 -111.9308 222° Southwest 152 175 1,400 -200 Descending Albuquerque Center

Login

Don't have an account? Register now (free) for customized features, flight alerts, and more!